createdAt,value
2019-02-09T00:00:02.383Z,2.29
2019-02-09T00:01:02.371Z,2.09
2019-02-09T00:02:02.359Z,2.09
2019-02-09T00:03:02.350Z,2.20
2019-02-09T00:04:02.339Z,2.29
2019-02-09T00:05:02.328Z,2.00
2019-02-09T00:06:02.316Z,2.09
2019-02-09T00:07:02.307Z,2.00
2019-02-09T00:08:02.295Z,2.20
2019-02-09T00:09:02.284Z,2.20
2019-02-09T00:10:02.273Z,1.90
2019-02-09T00:11:02.262Z,1.90
2019-02-09T00:12:02.249Z,1.79
2019-02-09T00:13:02.239Z,1.90
2019-02-09T00:14:02.228Z,1.90
2019-02-09T00:15:02.217Z,1.90
2019-02-09T00:16:02.207Z,1.90
2019-02-09T00:17:02.193Z,1.90
2019-02-09T00:18:02.230Z,1.79
2019-02-09T00:19:03.720Z,2.00
2019-02-09T00:20:02.161Z,1.90
2019-02-09T00:21:02.149Z,2.20
2019-02-09T00:22:02.138Z,1.90
2019-02-09T00:23:02.129Z,2.00
2019-02-09T00:24:02.114Z,2.00
2019-02-09T00:25:02.110Z,1.79
2019-02-09T00:26:02.094Z,2.00
2019-02-09T00:27:02.081Z,2.09
2019-02-09T00:28:02.075Z,1.90
2019-02-09T00:29:02.064Z,1.90
2019-02-09T00:30:02.051Z,1.79
2019-02-09T00:31:02.038Z,1.70
2019-02-09T00:32:02.027Z,1.79
2019-02-09T00:33:02.018Z,1.90
2019-02-09T00:34:02.007Z,1.79
2019-02-09T00:35:02.004Z,2.00
2019-02-09T00:36:01.985Z,2.09
2019-02-09T00:37:01.974Z,1.79
2019-02-09T00:38:01.965Z,1.90
2019-02-09T00:39:01.951Z,1.90
2019-02-09T00:40:01.940Z,1.90
2019-02-09T00:41:01.930Z,1.70
2019-02-09T00:42:01.925Z,1.79
2019-02-09T00:43:01.905Z,1.90
2019-02-09T00:44:01.896Z,1.90
2019-02-09T00:45:01.889Z,1.79
2019-02-09T00:46:01.877Z,1.70
2019-02-09T00:47:01.865Z,1.79
2019-02-09T00:48:01.854Z,2.09
2019-02-09T00:49:01.841Z,1.60
2019-02-09T00:50:01.829Z,1.50
2019-02-09T00:51:01.822Z,1.79
2019-02-09T00:52:01.807Z,1.70
2019-02-09T00:53:01.795Z,2.20
2019-02-09T00:54:01.787Z,1.79
2019-02-09T00:55:01.778Z,1.90
2019-02-09T00:56:01.763Z,1.90
2019-02-09T00:57:01.754Z,1.79
2019-02-09T00:58:01.743Z,1.79
2019-02-09T00:59:01.733Z,2.09
2019-02-09T01:00:01.737Z,2.00
2019-02-09T01:01:01.711Z,1.90
2019-02-09T01:02:01.698Z,1.90
2019-02-09T01:03:01.689Z,1.79
2019-02-09T01:04:01.677Z,1.90
2019-02-09T01:05:01.664Z,2.00
2019-02-09T01:06:01.655Z,2.09
2019-02-09T01:07:01.643Z,2.09
2019-02-09T01:08:01.636Z,2.00
2019-02-09T01:09:01.620Z,2.09
2019-02-09T01:10:01.611Z,1.70
2019-02-09T01:11:01.601Z,1.79
2019-02-09T01:12:01.593Z,1.90
2019-02-09T01:13:01.580Z,2.00
2019-02-09T01:14:01.570Z,1.90
2019-02-09T01:15:01.556Z,2.00
2019-02-09T01:16:01.544Z,1.79
2019-02-09T01:17:01.538Z,1.90
2019-02-09T01:18:01.521Z,2.00
2019-02-09T01:19:01.510Z,1.70
2019-02-09T01:20:01.502Z,1.79
2019-02-09T01:21:01.489Z,2.00
2019-02-09T01:22:01.485Z,1.90
2019-02-09T01:23:01.467Z,1.60
2019-02-09T01:24:01.455Z,1.79
2019-02-09T01:25:01.451Z,1.70
2019-02-09T01:26:01.435Z,1.70
2019-02-09T01:27:01.422Z,1.70
2019-02-09T01:28:01.414Z,1.90
2019-02-09T01:29:01.401Z,1.79
2019-02-09T01:30:02.741Z,1.70
2019-02-09T01:31:01.379Z,1.90
2019-02-09T01:32:01.371Z,1.79
2019-02-09T01:33:01.361Z,1.60
2019-02-09T01:34:01.346Z,1.70
2019-02-09T01:35:01.337Z,1.70
2019-02-09T01:36:01.324Z,1.50
2019-02-09T01:37:01.315Z,1.50
2019-02-09T01:38:01.304Z,1.60
2019-02-09T01:39:01.290Z,1.50
2019-02-09T01:40:01.296Z,1.50
2019-02-09T01:41:01.277Z,1.39
2019-02-09T01:42:01.259Z,1.70
2019-02-09T01:43:01.248Z,1.50
2019-02-09T01:44:01.235Z,1.79
2019-02-09T01:45:01.225Z,1.79
2019-02-09T01:46:01.217Z,1.50
2019-02-09T01:47:01.204Z,1.60
2019-02-09T01:48:01.192Z,1.50
2019-02-09T01:49:01.179Z,1.50
2019-02-09T01:50:01.226Z,1.70
2019-02-09T01:51:01.158Z,1.60
2019-02-09T01:52:01.155Z,1.50
2019-02-09T01:53:01.135Z,1.70
2019-02-09T01:54:01.125Z,1.70
2019-02-09T01:55:01.121Z,1.60
2019-02-09T01:56:01.104Z,1.79
2019-02-09T01:57:01.094Z,1.60
2019-02-09T01:58:01.083Z,1.79
2019-02-09T01:59:01.072Z,1.60
2019-02-09T02:00:01.148Z,1.70
2019-02-09T02:01:01.052Z,1.70
2019-02-09T02:02:01.038Z,1.39
2019-02-09T02:03:01.031Z,1.50
2019-02-09T02:04:01.014Z,1.60
2019-02-09T02:05:01.007Z,1.50
2019-02-09T02:06:00.992Z,1.39
2019-02-09T02:07:00.984Z,1.70
2019-02-09T02:08:00.972Z,1.60
2019-02-09T02:09:00.959Z,1.60
2019-02-09T02:10:00.949Z,1.50
2019-02-09T02:11:00.937Z,1.79
2019-02-09T02:12:00.927Z,1.60
2019-02-09T02:13:00.918Z,1.50
2019-02-09T02:14:00.904Z,1.60
2019-02-09T02:15:00.940Z,1.60
2019-02-09T02:16:00.884Z,1.39
2019-02-09T02:17:00.871Z,1.39
2019-02-09T02:18:00.862Z,1.79
2019-02-09T02:19:00.850Z,1.60
2019-02-09T02:20:00.841Z,1.60
2019-02-09T02:21:00.832Z,1.79
2019-02-09T02:22:00.817Z,1.70
2019-02-09T02:23:00.808Z,1.70
2019-02-09T02:24:00.795Z,1.50
2019-02-09T02:25:00.787Z,1.60
2019-02-09T02:26:00.775Z,1.79
2019-02-09T02:27:00.765Z,1.79
2019-02-09T02:28:00.754Z,1.70
2019-02-09T02:29:00.743Z,1.60
2019-02-09T02:30:00.735Z,1.70
2019-02-09T02:31:00.719Z,1.70
2019-02-09T02:32:00.712Z,1.50
2019-02-09T02:33:00.697Z,1.50
2019-02-09T02:34:00.686Z,1.60
2019-02-09T02:35:00.674Z,1.60
2019-02-09T02:36:00.667Z,1.60
2019-02-09T02:37:00.656Z,1.50
2019-02-09T02:38:00.650Z,1.60
2019-02-09T02:39:00.672Z,1.39
2019-02-09T02:40:00.621Z,1.79
2019-02-09T02:41:00.610Z,1.50
2019-02-09T02:42:00.599Z,1.60
2019-02-09T02:43:00.589Z,1.50
2019-02-09T02:44:00.585Z,1.50
2019-02-09T02:45:00.566Z,1.79
2019-02-09T02:46:00.556Z,1.39
2019-02-09T02:47:00.545Z,1.60
2019-02-09T02:48:00.532Z,1.50
2019-02-09T02:49:00.522Z,1.39
2019-02-09T02:50:00.519Z,1.39
2019-02-09T02:51:00.501Z,1.29
2019-02-09T02:52:00.488Z,1.60
2019-02-09T02:53:00.478Z,1.50
2019-02-09T02:54:00.468Z,1.70
2019-02-09T02:55:00.458Z,1.50
2019-02-09T02:56:00.447Z,1.70
2019-02-09T02:57:00.434Z,1.50
2019-02-09T02:58:00.425Z,1.70
2019-02-09T02:59:00.414Z,1.60
2019-02-09T03:00:00.406Z,1.39
2019-02-09T03:01:00.391Z,1.70
2019-02-09T03:02:00.378Z,1.39
2019-02-09T03:03:00.369Z,1.50
2019-02-09T03:04:00.357Z,1.60
2019-02-09T03:05:00.348Z,1.60
2019-02-09T03:06:00.337Z,1.50
2019-02-09T03:07:00.325Z,1.50
2019-02-09T03:08:00.339Z,1.60
2019-02-09T03:09:00.312Z,1.50
2019-02-09T03:10:00.373Z,1.50
2019-02-09T03:11:00.283Z,1.50
2019-02-09T03:12:00.272Z,1.60
2019-02-09T03:13:00.260Z,1.70
2019-02-09T03:14:00.250Z,1.39
2019-02-09T03:15:00.406Z,1.50
2019-02-09T03:16:00.227Z,1.50
2019-02-09T03:17:00.217Z,1.60
2019-02-09T03:18:00.204Z,1.60
2019-02-09T03:19:00.195Z,1.79
2019-02-09T03:20:00.266Z,1.79
2019-02-09T03:21:00.171Z,1.70
2019-02-09T03:22:00.163Z,1.60
2019-02-09T03:23:00.151Z,1.60
2019-02-09T03:24:00.141Z,2.00
2019-02-09T03:25:00.265Z,1.70
2019-02-09T03:26:00.118Z,1.90
2019-02-09T03:27:00.118Z,1.60
2019-02-09T03:28:00.095Z,1.60
2019-02-09T03:29:00.085Z,1.39
2019-02-09T03:30:00.160Z,1.50
2019-02-09T03:31:00.064Z,1.50
2019-02-09T03:32:00.054Z,1.60
2019-02-09T03:33:00.063Z,1.29
2019-02-09T03:34:00.030Z,1.50
2019-02-09T03:35:00.024Z,1.70
2019-02-09T03:36:00.010Z,1.39
2019-02-09T03:37:00.000Z,1.39
2019-02-09T03:37:59.988Z,1.39
2019-02-09T03:38:59.975Z,1.39
2019-02-09T03:39:59.974Z,1.39
2019-02-09T03:40:59.954Z,1.50
2019-02-09T03:41:59.944Z,1.50
2019-02-09T03:42:59.933Z,1.20
2019-02-09T03:43:59.921Z,1.20
2019-02-09T03:44:59.912Z,1.39
2019-02-09T03:45:59.902Z,1.29
2019-02-09T03:46:59.901Z,1.29
2019-02-09T03:47:59.883Z,1.00
2019-02-09T03:48:59.867Z,1.10
2019-02-09T03:49:59.858Z,1.00
2019-02-09T03:50:59.852Z,0.80
2019-02-09T03:51:59.836Z,1.20
2019-02-09T03:52:59.835Z,1.20
2019-02-09T03:53:59.818Z,0.90
2019-02-09T03:54:59.803Z,0.70
2019-02-09T03:55:59.792Z,0.90
2019-02-09T03:56:59.781Z,1.20
2019-02-09T03:57:59.775Z,0.90
2019-02-09T03:58:59.758Z,1.00
2019-02-09T03:59:59.748Z,0.90
2019-02-09T04:00:59.737Z,0.90
2019-02-09T04:01:59.725Z,1.00
2019-02-09T04:02:59.726Z,0.80
2019-02-09T04:03:59.705Z,0.70
2019-02-09T04:04:59.693Z,0.80
2019-02-09T04:05:59.689Z,0.80
2019-02-09T04:06:59.675Z,0.70
2019-02-09T04:07:59.666Z,0.90
2019-02-09T04:08:59.650Z,1.39
2019-02-09T04:09:59.640Z,1.00
2019-02-09T04:10:59.635Z,1.10
2019-02-09T04:11:59.618Z,0.70
2019-02-09T04:12:59.605Z,0.70
2019-02-09T04:13:59.597Z,0.60
2019-02-09T04:14:59.590Z,0.80
2019-02-09T04:15:59.571Z,0.70
2019-02-09T04:16:59.565Z,1.10
2019-02-09T04:17:59.562Z,0.60
2019-02-09T04:18:59.545Z,0.70
2019-02-09T04:19:59.535Z,0.70
2019-02-09T04:20:59.519Z,0.80
2019-02-09T04:21:59.507Z,0.70
2019-02-09T04:22:59.497Z,0.80
2019-02-09T04:23:59.485Z,0.80
2019-02-09T04:24:59.475Z,0.80
2019-02-09T04:25:59.471Z,0.80
2019-02-09T04:26:59.454Z,0.80
2019-02-09T04:27:59.449Z,0.60
2019-02-09T04:28:59.433Z,0.80
2019-02-09T04:29:59.421Z,0.60
2019-02-09T04:31:06.261Z,0.70
2019-02-09T04:32:20.587Z,1.00
2019-02-09T04:33:20.573Z,0.70
2019-02-09T04:34:20.559Z,0.60
2019-02-09T04:35:20.552Z,0.60
2019-02-09T04:36:20.550Z,0.60
2019-02-09T04:37:20.528Z,0.60
2019-02-09T04:38:20.518Z,0.70
2019-02-09T04:39:21.873Z,0.60
2019-02-09T04:40:20.493Z,0.70
2019-02-09T04:41:20.484Z,0.70
2019-02-09T04:42:20.480Z,0.70
2019-02-09T04:43:20.462Z,0.80
2019-02-09T04:44:20.450Z,0.60
2019-02-09T04:45:20.462Z,0.70
2019-02-09T04:46:20.429Z,0.50
2019-02-09T04:47:20.417Z,0.50
2019-02-09T04:48:20.406Z,0.70
2019-02-09T04:49:20.400Z,0.80
2019-02-09T04:50:20.387Z,0.50
2019-02-09T04:51:20.373Z,0.50
2019-02-09T04:52:20.372Z,0.60
2019-02-09T04:53:20.353Z,0.70
2019-02-09T04:54:20.337Z,0.80
2019-02-09T04:55:20.334Z,0.70
2019-02-09T04:56:20.319Z,0.70
2019-02-09T04:57:20.305Z,0.70
2019-02-09T04:58:20.296Z,0.60
2019-02-09T04:59:20.285Z,0.70
2019-02-09T05:00:20.273Z,0.70
2019-02-09T05:01:20.262Z,0.80
2019-02-09T05:02:20.250Z,0.90
2019-02-09T05:03:20.238Z,0.90
2019-02-09T05:04:20.227Z,0.60
2019-02-09T05:05:20.218Z,0.80
2019-02-09T05:06:20.207Z,0.60
2019-02-09T05:07:20.194Z,0.60
2019-02-09T05:08:20.187Z,0.70
2019-02-09T05:09:20.174Z,0.60
2019-02-09T05:10:20.160Z,0.40
2019-02-09T05:11:20.150Z,0.60
2019-02-09T05:12:20.142Z,0.60
2019-02-09T05:13:20.129Z,0.70
2019-02-09T05:14:20.118Z,0.60
2019-02-09T05:15:20.108Z,0.60
2019-02-09T05:16:20.098Z,0.60
2019-02-09T05:17:20.085Z,0.80
2019-02-09T05:18:20.075Z,0.70
2019-02-09T05:19:20.086Z,0.90
2019-02-09T05:20:20.051Z,0.80
2019-02-09T05:21:20.101Z,0.60
2019-02-09T05:22:20.029Z,0.60
2019-02-09T05:23:20.024Z,0.60
2019-02-09T05:24:20.007Z,0.60
2019-02-09T05:25:19.998Z,0.60
2019-02-09T05:26:19.985Z,0.80
2019-02-09T05:27:19.974Z,0.80
2019-02-09T05:28:19.965Z,0.70
2019-02-09T05:29:19.954Z,0.80
2019-02-09T05:30:19.940Z,0.80
2019-02-09T05:31:23.083Z,0.70
2019-02-09T05:32:19.922Z,0.80
2019-02-09T05:33:19.908Z,0.70
2019-02-09T05:34:19.896Z,0.90
2019-02-09T05:35:19.885Z,0.70
2019-02-09T05:36:19.875Z,0.80
2019-02-09T05:37:19.869Z,0.80
2019-02-09T05:38:19.853Z,0.50
2019-02-09T05:39:19.842Z,0.80
2019-02-09T05:40:19.830Z,0.70
2019-02-09T05:41:19.824Z,0.70
2019-02-09T05:42:19.810Z,0.80
2019-02-09T05:43:19.802Z,0.80
2019-02-09T05:44:19.787Z,0.90
2019-02-09T05:45:19.774Z,0.70
2019-02-09T05:46:19.764Z,0.80
2019-02-09T05:47:19.756Z,0.80
2019-02-09T05:48:19.744Z,0.80
2019-02-09T05:49:20.521Z,0.80
2019-02-09T05:50:19.725Z,1.10
2019-02-09T05:51:19.710Z,0.80
2019-02-09T05:52:19.697Z,0.80
2019-02-09T05:53:19.686Z,1.10
2019-02-09T05:54:19.716Z,0.90
2019-02-09T05:55:19.669Z,1.00
2019-02-09T05:56:19.653Z,1.00
2019-02-09T05:57:19.644Z,0.90
2019-02-09T05:58:19.637Z,1.00
2019-02-09T05:59:19.630Z,1.00
2019-02-09T06:00:19.617Z,0.90
2019-02-09T06:01:19.601Z,1.60
2019-02-09T06:02:19.589Z,1.39
2019-02-09T06:03:19.579Z,1.10
2019-02-09T06:04:19.567Z,1.00
2019-02-09T06:05:19.554Z,0.90
2019-02-09T06:06:19.543Z,0.90
2019-02-09T06:07:19.533Z,1.00
2019-02-09T06:08:19.525Z,0.90
2019-02-09T06:09:19.510Z,0.90
2019-02-09T06:10:19.572Z,1.00
2019-02-09T06:11:19.489Z,0.80
2019-02-09T06:12:19.476Z,0.80
2019-02-09T06:13:19.465Z,1.00
2019-02-09T06:14:19.454Z,0.90
2019-02-09T06:15:19.445Z,0.90
2019-02-09T06:16:19.432Z,0.80
2019-02-09T06:17:19.424Z,1.10
2019-02-09T06:18:19.410Z,1.10
2019-02-09T06:19:19.410Z,0.80
2019-02-09T06:20:19.386Z,0.90
2019-02-09T06:21:19.376Z,0.90
2019-02-09T06:22:19.364Z,0.80
2019-02-09T06:23:19.357Z,0.90
2019-02-09T06:24:19.344Z,1.10
2019-02-09T06:25:19.334Z,0.90
2019-02-09T06:26:19.322Z,0.90
2019-02-09T06:27:19.309Z,1.00
2019-02-09T06:28:19.300Z,1.10
2019-02-09T06:29:19.300Z,1.20
2019-02-09T06:30:19.282Z,1.20
2019-02-09T06:31:19.271Z,1.00
2019-02-09T06:32:19.253Z,1.20
2019-02-09T06:33:19.245Z,1.20
2019-02-09T06:34:19.233Z,1.00
2019-02-09T06:35:19.222Z,1.10
2019-02-09T06:36:19.212Z,1.00
2019-02-09T06:37:19.202Z,1.00
2019-02-09T06:38:19.209Z,1.10
2019-02-09T06:39:19.178Z,1.10
2019-02-09T06:40:19.165Z,1.10
2019-02-09T06:41:19.154Z,1.10
2019-02-09T06:42:19.148Z,1.20
2019-02-09T06:43:19.134Z,1.20
2019-02-09T06:44:19.121Z,1.00
2019-02-09T06:45:19.111Z,1.00
2019-02-09T06:46:19.101Z,1.10
2019-02-09T06:47:19.089Z,1.10
2019-02-09T06:48:19.092Z,1.10
2019-02-09T06:49:19.077Z,1.29
2019-02-09T06:50:19.058Z,1.29
2019-02-09T06:51:19.052Z,1.00
2019-02-09T06:52:19.033Z,1.29
2019-02-09T06:53:19.023Z,1.29
2019-02-09T06:54:19.012Z,1.10
2019-02-09T06:55:19.002Z,1.29
2019-02-09T06:56:18.989Z,1.20
2019-02-09T06:57:20.014Z,1.20
2019-02-09T06:58:18.966Z,1.20
2019-02-09T06:59:18.955Z,1.20
2019-02-09T07:00:18.947Z,1.50
2019-02-09T07:01:18.934Z,1.39
2019-02-09T07:02:18.923Z,1.39
2019-02-09T07:03:18.913Z,1.50
2019-02-09T07:04:18.903Z,1.50
2019-02-09T07:05:18.894Z,1.60
2019-02-09T07:06:18.879Z,1.60
2019-02-09T07:07:18.867Z,1.39
2019-02-09T07:08:18.858Z,1.39
2019-02-09T07:09:18.846Z,1.60
2019-02-09T07:10:18.836Z,1.70
2019-02-09T07:11:18.824Z,1.90
2019-02-09T07:12:18.814Z,1.90
2019-02-09T07:13:18.801Z,2.09
2019-02-09T07:14:18.793Z,2.09
2019-02-09T07:15:18.782Z,1.79
2019-02-09T07:16:18.784Z,1.70
2019-02-09T07:17:18.762Z,1.39
2019-02-09T07:18:18.747Z,1.39
2019-02-09T07:19:18.742Z,1.50
2019-02-09T07:20:18.727Z,1.50
2019-02-09T07:21:18.713Z,1.50
2019-02-09T07:22:18.703Z,1.60
2019-02-09T07:23:18.702Z,1.20
2019-02-09T07:24:18.681Z,1.50
2019-02-09T07:25:18.672Z,1.50
2019-02-09T07:26:18.659Z,1.20
2019-02-09T07:27:18.650Z,1.50
2019-02-09T07:28:18.638Z,1.29
2019-02-09T07:29:18.627Z,1.39
2019-02-09T07:30:18.615Z,1.20
2019-02-09T07:31:18.611Z,1.60
2019-02-09T07:32:18.598Z,1.50
2019-02-09T07:33:18.583Z,1.39
2019-02-09T07:34:18.570Z,1.70
2019-02-09T07:35:18.576Z,1.60
2019-02-09T07:36:18.551Z,1.39
2019-02-09T07:37:18.539Z,1.50
2019-02-09T07:38:18.530Z,1.50
2019-02-09T07:39:18.517Z,1.50
2019-02-09T07:40:18.505Z,1.50
2019-02-09T07:41:18.495Z,1.50
2019-02-09T07:42:18.483Z,1.29
2019-02-09T07:43:18.471Z,1.60
2019-02-09T07:44:18.462Z,1.50
2019-02-09T07:45:18.448Z,1.20
2019-02-09T07:46:18.439Z,1.60
2019-02-09T07:47:18.429Z,1.29
2019-02-09T07:48:18.417Z,1.70
2019-02-09T07:49:18.406Z,1.39
2019-02-09T07:50:18.396Z,1.60
2019-02-09T07:51:18.386Z,1.39
2019-02-09T07:52:18.372Z,1.39
2019-02-09T07:53:18.362Z,1.50
2019-02-09T07:54:18.351Z,1.39
2019-02-09T07:55:18.341Z,1.60
2019-02-09T07:56:18.327Z,1.10
2019-02-09T07:57:18.317Z,1.50
2019-02-09T07:58:18.305Z,1.50
2019-02-09T07:59:18.299Z,1.39
2019-02-09T08:00:18.285Z,1.50
2019-02-09T08:01:18.272Z,1.70
2019-02-09T08:02:18.261Z,1.60
2019-02-09T08:03:18.252Z,1.39
2019-02-09T08:04:18.237Z,1.50
2019-02-09T08:05:18.228Z,1.50
2019-02-09T08:06:18.219Z,1.39
2019-02-09T08:07:18.206Z,1.29
2019-02-09T08:08:18.200Z,1.60
2019-02-09T08:09:18.184Z,1.50
2019-02-09T08:10:18.173Z,1.50
2019-02-09T08:11:18.164Z,1.50
2019-02-09T08:12:18.151Z,1.50
2019-02-09T08:13:18.141Z,1.39
2019-02-09T08:14:18.129Z,1.60
2019-02-09T08:15:18.118Z,1.39
2019-02-09T08:16:18.108Z,1.39
2019-02-09T08:17:18.097Z,1.70
2019-02-09T08:18:18.085Z,1.50
2019-02-09T08:19:18.076Z,1.50
2019-02-09T08:20:18.065Z,1.50
2019-02-09T08:21:18.053Z,1.50
2019-02-09T08:22:18.043Z,1.70
2019-02-09T08:23:18.028Z,1.29
2019-02-09T08:24:18.021Z,1.39
2019-02-09T08:25:18.008Z,1.70
2019-02-09T08:26:17.998Z,1.60
2019-02-09T08:27:23.484Z,1.50
2019-02-09T08:28:17.984Z,1.50
2019-02-09T08:29:17.964Z,1.70
2019-02-09T08:30:19.212Z,1.60
2019-02-09T08:31:17.944Z,1.60
2019-02-09T08:32:17.934Z,1.79
2019-02-09T08:33:17.922Z,1.60
2019-02-09T08:34:17.908Z,1.70
2019-02-09T08:35:17.899Z,1.50
2019-02-09T08:36:17.886Z,1.39
2019-02-09T08:37:17.876Z,1.60
2019-02-09T08:38:17.865Z,1.50
2019-02-09T08:39:17.854Z,1.70
2019-02-09T08:40:17.843Z,1.60
2019-02-09T08:41:17.834Z,1.50
2019-02-09T08:42:17.822Z,1.60
2019-02-09T08:43:17.813Z,1.79
2019-02-09T08:44:17.800Z,1.60
2019-02-09T08:45:17.789Z,1.70
2019-02-09T08:46:17.778Z,1.90
2019-02-09T08:47:17.768Z,1.70
2019-02-09T08:48:17.756Z,1.70
2019-02-09T08:49:17.745Z,1.79
2019-02-09T08:50:17.735Z,1.70
2019-02-09T08:51:17.725Z,1.90
2019-02-09T08:52:17.713Z,1.79
2019-02-09T08:53:17.704Z,1.90
2019-02-09T08:54:17.693Z,1.79
2019-02-09T08:55:17.681Z,1.90
2019-02-09T08:56:17.671Z,1.79
2019-02-09T08:57:17.659Z,1.60
2019-02-09T08:58:17.649Z,1.90
2019-02-09T08:59:17.635Z,1.70
2019-02-09T09:00:17.624Z,1.79
2019-02-09T09:01:17.644Z,2.09
2019-02-09T09:02:20.654Z,1.79
2019-02-09T09:03:17.594Z,1.90
2019-02-09T09:04:17.583Z,1.79
2019-02-09T09:05:17.570Z,2.00
2019-02-09T09:06:17.560Z,1.90
2019-02-09T09:07:17.549Z,2.00
2019-02-09T09:08:17.539Z,1.79
2019-02-09T09:09:17.529Z,2.09
2019-02-09T09:10:17.519Z,1.60
2019-02-09T09:11:17.505Z,1.90
2019-02-09T09:12:17.496Z,1.90
2019-02-09T09:13:17.484Z,1.79
2019-02-09T09:14:17.474Z,1.90
2019-02-09T09:15:17.461Z,2.00
2019-02-09T09:16:17.451Z,2.00
2019-02-09T09:17:17.442Z,2.09
2019-02-09T09:18:17.428Z,1.90
2019-02-09T09:19:17.421Z,2.00
2019-02-09T09:20:17.407Z,1.70
2019-02-09T09:21:17.397Z,2.00
2019-02-09T09:22:17.384Z,2.09
2019-02-09T09:23:17.375Z,2.20
2019-02-09T09:24:17.364Z,2.00
2019-02-09T09:25:17.353Z,1.79
2019-02-09T09:26:17.343Z,2.20
2019-02-09T09:27:17.330Z,2.20
2019-02-09T09:28:17.318Z,2.29
2019-02-09T09:29:17.310Z,2.29
2019-02-09T09:30:17.297Z,2.09
2019-02-09T09:31:17.288Z,2.29
2019-02-09T09:32:17.275Z,2.00
2019-02-09T09:33:17.265Z,2.20
2019-02-09T09:34:17.254Z,2.09
2019-02-09T09:35:17.242Z,1.70
2019-02-09T09:36:17.238Z,2.00
2019-02-09T09:37:17.220Z,2.09
2019-02-09T09:38:17.210Z,2.09
2019-02-09T09:39:17.198Z,2.00
2019-02-09T09:40:17.189Z,2.09
2019-02-09T09:41:17.177Z,2.20
2019-02-09T09:42:17.166Z,2.00
2019-02-09T09:43:17.157Z,1.90
2019-02-09T09:44:17.144Z,2.00
2019-02-09T09:45:17.136Z,2.40
2019-02-09T09:46:17.124Z,2.40
2019-02-09T09:47:17.112Z,2.20
2019-02-09T09:48:17.101Z,2.00
2019-02-09T09:49:17.092Z,2.09
2019-02-09T09:50:17.082Z,2.09
2019-02-09T09:51:17.068Z,2.00
2019-02-09T09:52:17.057Z,2.20
2019-02-09T09:53:17.046Z,2.29
2019-02-09T09:54:17.036Z,2.09
2019-02-09T09:55:17.023Z,2.20
2019-02-09T09:56:17.016Z,2.09
2019-02-09T09:57:17.003Z,2.40
2019-02-09T09:58:16.992Z,2.20
2019-02-09T09:59:16.980Z,2.20
2019-02-09T10:00:17.014Z,2.29
2019-02-09T10:01:16.959Z,2.40
2019-02-09T10:02:16.952Z,2.09
2019-02-09T10:03:16.938Z,2.29
2019-02-09T10:04:16.933Z,2.20
2019-02-09T10:05:16.914Z,2.20
2019-02-09T10:06:16.904Z,2.29
2019-02-09T10:07:16.897Z,2.09
2019-02-09T10:08:16.882Z,2.00
2019-02-09T10:09:16.873Z,2.50
2019-02-09T10:10:16.859Z,2.20
2019-02-09T10:11:16.849Z,2.59
2019-02-09T10:12:16.837Z,2.09
2019-02-09T10:13:16.831Z,2.50
2019-02-09T10:14:16.816Z,2.40
2019-02-09T10:15:16.807Z,2.20
2019-02-09T10:16:16.795Z,2.50
2019-02-09T10:17:16.784Z,2.20
2019-02-09T10:18:16.775Z,2.09
2019-02-09T10:19:16.761Z,2.00
2019-02-09T10:20:16.752Z,2.50
2019-02-09T10:21:16.741Z,2.29
2019-02-09T10:22:16.730Z,2.29
2019-02-09T10:23:16.716Z,2.40
2019-02-09T10:24:16.708Z,2.40
2019-02-09T10:25:16.697Z,2.29
2019-02-09T10:26:16.685Z,2.59
2019-02-09T10:27:16.675Z,2.29
2019-02-09T10:28:16.662Z,2.29
2019-02-09T10:29:16.651Z,2.20
2019-02-09T10:30:16.642Z,2.29
2019-02-09T10:31:16.645Z,2.50
2019-02-09T10:32:16.620Z,2.59
2019-02-09T10:33:16.607Z,2.59
2019-02-09T10:34:16.598Z,2.20
2019-02-09T10:35:16.585Z,2.59
2019-02-09T10:36:16.577Z,2.50
2019-02-09T10:37:16.568Z,2.79
2019-02-09T10:38:16.555Z,2.20
2019-02-09T10:39:16.542Z,2.50
2019-02-09T10:40:16.534Z,2.20
2019-02-09T10:41:16.521Z,2.40
2019-02-09T10:42:16.518Z,2.70
2019-02-09T10:43:16.498Z,2.20
2019-02-09T10:44:16.488Z,2.59
2019-02-09T10:45:16.482Z,2.40
2019-02-09T10:46:16.467Z,2.50
2019-02-09T10:47:16.484Z,2.50
2019-02-09T10:48:16.446Z,2.79
2019-02-09T10:49:16.434Z,2.09
2019-02-09T10:50:16.422Z,2.29
2019-02-09T10:51:16.411Z,2.50
2019-02-09T10:52:16.399Z,2.29
2019-02-09T10:53:16.489Z,2.40
2019-02-09T10:54:16.377Z,2.40
2019-02-09T10:55:16.368Z,2.29
2019-02-09T10:56:16.355Z,2.70
2019-02-09T10:57:16.344Z,2.29
2019-02-09T10:58:16.335Z,2.29
2019-02-09T10:59:16.323Z,2.50
2019-02-09T11:00:16.317Z,2.29
2019-02-09T11:01:16.302Z,2.59
2019-02-09T11:02:16.290Z,2.79
2019-02-09T11:03:16.280Z,2.29
2019-02-09T11:04:16.269Z,2.70
2019-02-09T11:05:16.259Z,2.50
2019-02-09T11:06:16.247Z,2.70
2019-02-09T11:07:16.242Z,2.40
2019-02-09T11:08:16.229Z,2.79
2019-02-09T11:09:16.216Z,2.29
2019-02-09T11:10:16.204Z,2.40
2019-02-09T11:11:16.245Z,2.50
2019-02-09T11:12:16.183Z,2.50
2019-02-09T11:13:16.170Z,2.90
2019-02-09T11:14:16.161Z,2.59
2019-02-09T11:15:16.148Z,2.40
2019-02-09T11:16:16.140Z,3.00
2019-02-09T11:17:16.126Z,2.09
2019-02-09T11:18:16.115Z,2.59
2019-02-09T11:19:16.103Z,2.90
2019-02-09T11:20:16.094Z,2.70
2019-02-09T11:21:16.081Z,2.90
2019-02-09T11:22:16.072Z,2.59
2019-02-09T11:23:16.068Z,2.59
2019-02-09T11:24:16.049Z,2.50
2019-02-09T11:25:16.040Z,2.59
2019-02-09T11:26:16.028Z,3.00
2019-02-09T11:27:16.016Z,2.79
2019-02-09T11:28:16.006Z,2.59
2019-02-09T11:29:15.995Z,2.59
2019-02-09T11:30:15.985Z,2.59
2019-02-09T11:31:15.973Z,2.29
2019-02-09T11:32:15.963Z,2.29
2019-02-09T11:33:15.951Z,2.59
2019-02-09T11:34:15.944Z,2.50
2019-02-09T11:35:15.930Z,2.70
2019-02-09T11:36:15.921Z,2.40
2019-02-09T11:37:15.909Z,2.50
2019-02-09T11:38:15.901Z,2.70
2019-02-09T11:39:15.884Z,2.70
2019-02-09T11:40:15.877Z,2.50
2019-02-09T11:41:15.864Z,2.59
2019-02-09T11:42:15.855Z,3.20
2019-02-09T11:43:15.842Z,2.70
2019-02-09T11:44:15.830Z,2.90
2019-02-09T11:45:15.821Z,3.29
2019-02-09T11:46:15.809Z,3.70
2019-02-09T11:47:15.800Z,2.50
2019-02-09T11:48:15.825Z,2.50
2019-02-09T11:49:15.774Z,2.70
2019-02-09T11:50:15.764Z,2.79
2019-02-09T11:51:15.759Z,2.50
2019-02-09T11:52:15.744Z,2.70
2019-02-09T11:53:15.738Z,2.50
2019-02-09T11:54:15.720Z,2.90
2019-02-09T11:55:15.996Z,2.79
2019-02-09T11:56:15.698Z,2.90
2019-02-09T11:57:15.691Z,2.59
2019-02-09T11:58:16.229Z,2.50
2019-02-09T11:59:15.665Z,2.79
2019-02-09T12:00:15.660Z,3.09
2019-02-09T12:01:15.646Z,2.70
2019-02-09T12:02:15.632Z,2.59
2019-02-09T12:03:16.322Z,2.50
2019-02-09T12:04:15.612Z,2.70
2019-02-09T12:05:15.601Z,2.90
2019-02-09T12:06:15.591Z,2.70
2019-02-09T12:07:15.578Z,2.50
2019-02-09T12:08:15.569Z,2.59
2019-02-09T12:09:15.575Z,2.70
2019-02-09T12:10:15.547Z,3.09
2019-02-09T12:11:15.534Z,2.59
2019-02-09T12:12:15.525Z,2.90
2019-02-09T12:13:15.513Z,3.09
2019-02-09T12:14:15.501Z,2.70
2019-02-09T12:15:15.493Z,2.50
2019-02-09T12:16:15.480Z,2.59
2019-02-09T12:17:15.472Z,2.70
2019-02-09T12:18:15.462Z,2.79
2019-02-09T12:19:15.447Z,3.00
2019-02-09T12:20:15.436Z,2.79
2019-02-09T12:21:15.425Z,2.70
2019-02-09T12:22:15.416Z,2.70
2019-02-09T12:23:15.405Z,3.00
2019-02-09T12:24:15.392Z,3.20
2019-02-09T12:25:15.383Z,2.50
2019-02-09T12:26:15.369Z,2.59
2019-02-09T12:27:15.360Z,2.50
2019-02-09T12:28:15.348Z,2.50
2019-02-09T12:29:15.337Z,2.59
2019-02-09T12:30:15.330Z,2.40
2019-02-09T12:31:15.317Z,2.70
2019-02-09T12:32:15.305Z,2.29
2019-02-09T12:33:22.847Z,2.90
